createdAt,value
2022-12-26T00:00:36.856Z,98406.75
2022-12-26T00:03:03.699Z,98407.25
2022-12-26T00:05:30.984Z,98408.75
2022-12-26T00:07:57.599Z,98408.34
2022-12-26T00:10:24.226Z,98413.69
2022-12-26T00:12:50.869Z,98419.59
2022-12-26T00:15:17.525Z,98415.91
2022-12-26T00:17:44.192Z,98416.03
2022-12-26T00:20:11.102Z,98421.00
2022-12-26T00:22:37.746Z,98427.38
2022-12-26T00:25:04.597Z,98428.00
2022-12-26T00:27:31.238Z,98423.47
2022-12-26T00:29:57.960Z,98419.34
2022-12-26T00:32:24.606Z,98417.78
2022-12-26T00:34:51.279Z,98425.00
2022-12-26T00:37:17.969Z,98430.97
2022-12-26T00:39:44.618Z,98431.59
2022-12-26T00:42:11.276Z,98435.66
2022-12-26T00:44:37.944Z,98435.56
2022-12-26T00:47:04.625Z,98423.66
2022-12-26T00:50:11.242Z,98423.28
2022-12-26T00:52:20.197Z,98418.78
2022-12-26T00:54:46.831Z,98406.41
2022-12-26T00:57:13.471Z,98404.38
2022-12-26T00:59:40.157Z,98401.34
2022-12-26T01:02:26.801Z,98404.88
2022-12-26T01:04:53.536Z,98401.59
2022-12-26T01:07:20.219Z,98404.81
2022-12-26T01:09:47.855Z,98393.37
2022-12-26T01:12:14.523Z,98391.72
2022-12-26T01:14:41.187Z,98403.38
2022-12-26T01:17:07.849Z,98402.59
2022-12-26T01:19:34.533Z,98406.69
2022-12-26T01:22:01.204Z,98411.56
2022-12-26T01:24:27.844Z,98413.03
2022-12-26T01:26:54.480Z,98400.22
2022-12-26T01:29:21.147Z,98404.66
2022-12-26T01:31:47.939Z,98419.34
2022-12-26T01:34:14.588Z,98411.97
2022-12-26T01:36:41.264Z,98410.44
2022-12-26T01:39:08.006Z,98408.63
2022-12-26T01:41:36.766Z,98401.34
2022-12-26T01:44:04.910Z,98388.41
2022-12-26T01:46:36.847Z,98388.59
2022-12-26T01:49:12.737Z,98388.78
2022-12-26T01:51:40.380Z,98385.16
2022-12-26T01:54:37.815Z,98374.16
2022-12-26T01:56:54.627Z,98386.34
2022-12-26T01:59:23.229Z,98384.66
2022-12-26T02:01:50.537Z,98384.16
2022-12-26T02:04:36.442Z,98382.16
2022-12-26T02:07:03.140Z,98374.94
2022-12-26T02:09:29.821Z,98378.34
2022-12-26T02:12:36.676Z,98369.66
2022-12-26T02:14:45.893Z,98378.72
2022-12-26T02:17:12.547Z,98377.78
2022-12-26T02:19:39.154Z,98376.31
2022-12-26T02:22:26.041Z,98370.69
2022-12-26T02:25:00.833Z,98351.00
2022-12-26T02:27:47.691Z,98349.75
2022-12-26T02:30:34.109Z,98349.81
2022-12-26T02:33:30.158Z,98351.31
2022-12-26T02:36:01.255Z,98364.38
2022-12-26T02:38:35.813Z,98362.16
2022-12-26T02:41:18.613Z,98363.25
2022-12-26T02:43:57.350Z,98359.97
2022-12-26T02:46:51.767Z,98352.34
2022-12-26T02:49:22.248Z,98360.88
2022-12-26T02:52:10.284Z,98355.31
2022-12-26T02:55:12.780Z,98366.16
2022-12-26T02:58:05.398Z,98352.44
2022-12-26T03:00:50.830Z,98350.22
2022-12-26T03:03:37.231Z,98356.97
2022-12-26T03:06:23.657Z,98352.63
2022-12-26T03:09:14.221Z,98352.78
2022-12-26T03:11:59.961Z,98352.88
2022-12-26T03:14:27.488Z,98352.50
2022-12-26T03:17:15.249Z,98353.50
2022-12-26T03:19:58.437Z,98359.16
2022-12-26T03:22:31.146Z,98357.00
2022-12-26T03:25:17.225Z,98353.19
2022-12-26T03:27:43.890Z,98341.19
2022-12-26T03:30:30.301Z,98338.59
2022-12-26T03:32:57.165Z,98343.34
2022-12-26T03:35:23.843Z,98335.50
2022-12-26T03:38:02.273Z,98332.13
2022-12-26T03:41:04.065Z,98334.22
2022-12-26T03:43:49.087Z,98324.37
2022-12-26T03:46:53.165Z,98329.03
2022-12-26T03:49:41.845Z,98339.19
2022-12-26T03:52:34.992Z,98353.78
2022-12-26T03:55:29.535Z,98352.75
2022-12-26T03:58:20.774Z,98367.75
2022-12-26T04:01:07.561Z,98371.25
2022-12-26T04:03:53.202Z,98390.28
2022-12-26T04:06:39.320Z,98364.06
2022-12-26T04:09:27.017Z,98371.41
2022-12-26T04:12:12.376Z,98375.16
2022-12-26T04:14:59.910Z,98393.22
2022-12-26T04:17:51.487Z,98386.63
2022-12-26T04:20:30.317Z,98397.56
2022-12-26T04:23:45.065Z,98404.78
2022-12-26T04:26:32.013Z,98404.06
2022-12-26T04:29:17.283Z,98393.66
2022-12-26T04:32:04.533Z,98387.78
2022-12-26T04:34:52.512Z,98390.63
2022-12-26T04:37:39.130Z,98390.94
2022-12-26T04:40:27.521Z,98399.63
2022-12-26T04:43:50.299Z,98406.44
2022-12-26T04:45:59.525Z,98404.91
2022-12-26T04:48:44.932Z,98396.75
2022-12-26T04:51:20.647Z,98400.25
2022-12-26T04:53:47.314Z,98394.31
2022-12-26T04:56:14.914Z,98392.87
2022-12-26T04:58:41.560Z,98391.28
2022-12-26T05:01:32.278Z,98374.84
2022-12-26T05:04:17.508Z,98376.91
2022-12-26T05:07:02.857Z,98367.88
2022-12-26T05:09:36.799Z,98368.31
2022-12-26T05:12:04.006Z,98368.66
2022-12-26T05:14:31.814Z,98374.09
2022-12-26T05:17:17.573Z,98376.34
2022-12-26T05:20:04.088Z,98385.06
2022-12-26T05:22:51.098Z,98391.19
2022-12-26T05:25:37.768Z,98393.44
2022-12-26T05:28:23.099Z,98389.41
2022-12-26T05:30:50.816Z,98387.63
2022-12-26T05:33:35.849Z,98390.03
2022-12-26T05:36:02.487Z,98380.47
2022-12-26T05:38:29.202Z,98389.56
2022-12-26T05:40:57.844Z,98385.75
2022-12-26T05:43:24.593Z,98395.25
2022-12-26T05:45:51.251Z,98385.75
2022-12-26T05:48:17.928Z,98386.91
2022-12-26T05:50:44.644Z,98387.97
2022-12-26T05:53:11.297Z,98390.06
2022-12-26T05:55:37.986Z,98386.66
2022-12-26T05:58:04.622Z,98371.22
2022-12-26T06:00:31.418Z,98376.25
2022-12-26T06:03:02.377Z,98370.91
2022-12-26T06:05:29.303Z,98373.59
2022-12-26T06:07:55.924Z,98374.06
2022-12-26T06:10:22.637Z,98371.91
2022-12-26T06:12:49.294Z,98374.06
2022-12-26T06:15:15.977Z,98379.53
2022-12-26T06:17:42.700Z,98370.50
2022-12-26T06:20:10.873Z,98377.16
2022-12-26T06:22:37.904Z,98371.09
2022-12-26T06:25:04.767Z,98370.63
2022-12-26T06:27:31.425Z,98376.97
2022-12-26T06:30:00.092Z,98369.87
2022-12-26T06:32:26.818Z,98369.25
2022-12-26T06:34:53.449Z,98367.56
2022-12-26T06:37:20.105Z,98377.34
2022-12-26T06:39:46.738Z,98381.19
2022-12-26T06:42:13.374Z,98387.44
2022-12-26T06:44:40.023Z,98377.91
2022-12-26T06:47:06.685Z,98380.56
2022-12-26T06:49:35.401Z,98381.19
2022-12-26T06:52:02.078Z,98380.59
2022-12-26T06:54:28.704Z,98377.78
2022-12-26T06:56:55.391Z,98372.63
2022-12-26T06:59:22.059Z,98375.00
2022-12-26T07:01:49.175Z,98386.16
2022-12-26T07:04:16.057Z,98385.31
2022-12-26T07:06:42.710Z,98386.72
2022-12-26T07:09:11.045Z,98387.09
2022-12-26T07:11:50.991Z,98386.09
2022-12-26T07:14:17.654Z,98381.97
2022-12-26T07:16:45.067Z,98378.28
2022-12-26T07:19:12.352Z,98379.53
2022-12-26T07:21:44.838Z,98383.38
2022-12-26T07:24:16.121Z,98384.63
2022-12-26T07:26:43.137Z,98393.47
2022-12-26T07:29:09.857Z,98387.56
2022-12-26T07:31:37.557Z,98389.72
2022-12-26T07:34:04.366Z,98396.22
2022-12-26T07:36:31.029Z,98393.44
2022-12-26T07:38:57.880Z,98392.84
2022-12-26T07:41:44.297Z,98402.03
2022-12-26T07:44:11.154Z,98404.88
2022-12-26T07:46:37.934Z,98410.72
2022-12-26T07:49:04.673Z,98412.06
2022-12-26T07:51:37.445Z,98415.19
2022-12-26T07:54:09.034Z,98428.50
2022-12-26T07:56:37.957Z,98438.22
2022-12-26T07:59:04.621Z,98428.72
2022-12-26T08:01:37.328Z,98434.28
2022-12-26T08:04:04.223Z,98435.19
2022-12-26T08:06:30.892Z,98434.59
2022-12-26T08:08:57.564Z,98434.97
2022-12-26T08:11:29.211Z,98445.72
2022-12-26T08:13:55.878Z,98436.25
2022-12-26T08:16:22.573Z,98435.62
2022-12-26T08:18:49.276Z,98444.28
2022-12-26T08:21:21.719Z,98459.03
2022-12-26T08:23:48.735Z,98455.50
2022-12-26T08:26:20.903Z,98454.25
2022-12-26T08:28:47.727Z,98457.91
2022-12-26T08:31:17.814Z,98460.28
2022-12-26T08:33:44.504Z,98467.53
2022-12-26T08:36:12.902Z,98465.56
2022-12-26T08:38:40.323Z,98467.91
2022-12-26T08:41:07.103Z,98475.47
2022-12-26T08:46:20.897Z,98472.09
2022-12-26T08:48:47.758Z,98474.94
2022-12-26T08:51:51.798Z,98486.25
2022-12-26T08:54:18.440Z,98487.41
2022-12-26T08:56:45.301Z,98489.97
2022-12-26T08:59:11.953Z,98491.37
2022-12-26T09:01:42.731Z,98488.75
2022-12-26T09:04:09.544Z,98494.47
2022-12-26T09:06:36.886Z,98496.12
2022-12-26T09:09:03.998Z,98495.00
2022-12-26T09:14:53.395Z,98498.50
2022-12-26T09:17:20.109Z,98500.03
2022-12-26T09:19:46.871Z,98496.84
2022-12-26T09:22:35.186Z,98495.50
2022-12-26T09:25:02.094Z,98489.38
2022-12-26T09:27:29.041Z,98490.91
2022-12-26T09:30:04.805Z,98490.44
2022-12-26T09:32:34.948Z,98499.28
2022-12-26T09:35:01.944Z,98501.22
2022-12-26T09:37:28.584Z,98489.03
2022-12-26T09:43:37.331Z,98492.13
2022-12-26T09:46:11.632Z,98493.56
2022-12-26T09:48:40.487Z,98489.59
2022-12-26T09:51:08.221Z,98481.25
2022-12-26T09:53:35.689Z,98488.62
2022-12-26T09:56:18.373Z,98473.94
2022-12-26T09:58:56.699Z,98473.25
2022-12-26T10:04:45.272Z,98472.69
2022-12-26T10:07:17.885Z,98474.22
2022-12-26T10:10:10.564Z,98480.28
2022-12-26T10:12:43.028Z,98472.69
2022-12-26T10:15:12.917Z,98470.00
2022-12-26T10:17:48.635Z,98460.84
2022-12-26T10:23:53.157Z,98457.06
2022-12-26T10:26:20.725Z,98465.56
2022-12-26T10:29:02.698Z,98469.47
2022-12-26T10:34:48.805Z,98472.66
2022-12-26T10:37:28.506Z,98470.88
2022-12-26T10:40:11.773Z,98473.00
2022-12-26T10:42:38.463Z,98457.19
2022-12-26T10:45:13.027Z,98464.34
2022-12-26T10:47:40.342Z,98458.56
2022-12-26T10:53:46.954Z,98465.78
2022-12-26T10:56:18.034Z,98465.88
2022-12-26T10:58:44.918Z,98462.47
2022-12-26T11:01:32.612Z,98462.34
2022-12-26T11:04:02.136Z,98451.41
2022-12-26T11:06:31.391Z,98448.44
2022-12-26T11:08:58.040Z,98449.75
2022-12-26T11:14:47.101Z,98435.12
2022-12-26T11:17:14.972Z,98431.81
2022-12-26T11:23:13.024Z,98429.84
2022-12-26T11:25:47.561Z,98423.53
2022-12-26T11:28:24.119Z,98417.72
2022-12-26T11:34:01.983Z,98416.28
2022-12-26T11:36:29.087Z,98414.28
2022-12-26T11:38:59.849Z,98412.38
2022-12-26T11:41:43.649Z,98410.34
2022-12-26T11:44:20.639Z,98407.19
2022-12-26T11:47:00.817Z,98400.69
2022-12-26T11:53:30.643Z,98387.88
2022-12-26T11:56:01.637Z,98388.91
2022-12-26T11:58:29.610Z,98400.00
2022-12-26T12:01:08.561Z,98398.41
2022-12-26T12:03:37.087Z,98400.16
2022-12-26T12:06:22.306Z,98394.00
2022-12-26T12:09:03.840Z,98392.87
2022-12-26T12:15:00.428Z,98397.38
2022-12-26T12:17:39.361Z,98389.56
2022-12-26T12:23:53.031Z,98384.59
2022-12-26T12:26:27.445Z,98387.56
2022-12-26T12:28:54.054Z,98396.41
2022-12-26T12:31:34.012Z,98403.03
2022-12-26T12:34:04.287Z,98397.38
2022-12-26T12:36:49.791Z,98382.66
2022-12-26T12:39:17.621Z,98377.25
2022-12-26T12:42:10.258Z,98375.03
2022-12-26T12:44:56.842Z,98378.37
2022-12-26T12:47:23.762Z,98370.47
2022-12-26T12:50:25.850Z,98367.06
2022-12-26T12:52:58.268Z,98361.16
2022-12-26T12:55:31.006Z,98351.50
2022-12-26T12:58:16.097Z,98354.19
2022-12-26T13:00:49.876Z,98354.19
2022-12-26T13:03:22.665Z,98351.69
2022-12-26T13:05:52.503Z,98354.00
2022-12-26T13:08:21.449Z,98360.72
2022-12-26T13:14:29.057Z,98357.34
2022-12-26T13:17:01.570Z,98351.31
2022-12-26T13:19:31.188Z,98346.00
2022-12-26T13:21:58.891Z,98337.38
2022-12-26T13:24:36.071Z,98335.50
2022-12-26T13:27:11.903Z,98334.00
2022-12-26T13:29:43.990Z,98335.53
2022-12-26T13:32:22.727Z,98331.97
2022-12-26T13:34:49.779Z,98334.63
2022-12-26T13:37:35.166Z,98332.69
2022-12-26T13:40:03.326Z,98329.53
2022-12-26T13:42:50.455Z,98328.50
2022-12-26T13:45:35.758Z,98334.44
2022-12-26T13:48:03.081Z,98332.66
2022-12-26T13:51:04.925Z,98331.34
2022-12-26T13:53:32.740Z,98330.16
2022-12-26T13:56:00.440Z,98340.97
2022-12-26T13:58:30.054Z,98343.69
2022-12-26T14:01:04.470Z,98348.41
2022-12-26T14:03:31.317Z,98345.31
2022-12-26T14:06:16.628Z,98351.19
2022-12-26T14:08:55.263Z,98359.09
2022-12-26T14:14:53.854Z,98373.75
2022-12-26T14:17:33.073Z,98385.75
2022-12-26T14:20:23.724Z,98384.41
2022-12-26T14:23:09.309Z,98377.66
2022-12-26T14:25:50.422Z,98371.38
2022-12-26T14:28:19.892Z,98367.78
2022-12-26T14:31:12.384Z,98366.53
2022-12-26T14:33:48.286Z,98355.75
2022-12-26T14:36:30.318Z,98349.75
2022-12-26T14:38:56.946Z,98345.75
2022-12-26T14:44:31.710Z,98356.84
2022-12-26T14:46:59.680Z,98358.50
2022-12-26T14:49:35.788Z,98350.50
2022-12-26T14:52:32.297Z,98350.38
2022-12-26T14:54:58.991Z,98353.63
2022-12-26T14:57:38.154Z,98351.22
2022-12-26T15:00:29.178Z,98357.44
2022-12-26T15:02:58.716Z,98359.25
2022-12-26T15:05:26.411Z,98362.28
2022-12-26T15:08:12.210Z,98366.06
2022-12-26T15:10:38.860Z,98361.31
2022-12-26T15:13:14.490Z,98361.44
2022-12-26T15:15:51.399Z,98355.81
2022-12-26T15:18:42.810Z,98352.47
2022-12-26T15:21:23.303Z,98365.44
2022-12-26T15:23:53.323Z,98359.91
2022-12-26T15:26:20.018Z,98361.84
2022-12-26T15:29:05.709Z,98360.66
2022-12-26T15:31:41.491Z,98365.94
2022-12-26T15:34:11.212Z,98358.59
2022-12-26T15:36:44.215Z,98369.50
2022-12-26T15:39:25.420Z,98359.72
2022-12-26T15:42:16.364Z,98354.75
2022-12-26T15:44:52.041Z,98355.94
2022-12-26T15:47:21.422Z,98342.28
2022-12-26T15:50:07.723Z,98340.28
2022-12-26T15:52:51.045Z,98347.13
2022-12-26T15:55:17.676Z,98357.25
2022-12-26T15:58:06.418Z,98353.53
2022-12-26T16:00:40.731Z,98344.94
2022-12-26T16:03:26.328Z,98344.88
2022-12-26T16:05:54.092Z,98341.16
2022-12-26T16:08:23.912Z,98335.72
2022-12-26T16:10:55.730Z,98339.75
2022-12-26T16:13:25.484Z,98338.28
2022-12-26T16:15:53.385Z,98331.75
2022-12-26T16:18:21.535Z,98332.31
2022-12-26T16:21:07.254Z,98325.63
2022-12-26T16:23:35.815Z,98320.28
2022-12-26T16:26:02.463Z,98320.28
2022-12-26T16:28:39.706Z,98309.16
2022-12-26T16:31:08.649Z,98313.75
2022-12-26T16:33:38.984Z,98312.66
2022-12-26T16:36:05.701Z,98323.53
2022-12-26T16:38:32.457Z,98315.81
2022-12-26T16:41:02.067Z,98313.78
2022-12-26T16:43:29.704Z,98317.97
2022-12-26T16:46:01.476Z,98311.72
2022-12-26T16:48:29.763Z,98317.09
2022-12-26T16:51:02.605Z,98317.72
2022-12-26T16:53:35.331Z,98323.44
2022-12-26T16:56:21.540Z,98322.94
2022-12-26T16:58:48.217Z,98329.28
2022-12-26T17:01:16.891Z,98337.84
2022-12-26T17:03:48.589Z,98336.97
2022-12-26T17:06:22.608Z,98327.97
2022-12-26T17:08:49.441Z,98327.38
2022-12-26T17:11:17.165Z,98326.50
2022-12-26T17:13:50.431Z,98330.91
2022-12-26T17:16:17.157Z,98329.28
2022-12-26T17:18:50.686Z,98328.62
2022-12-26T17:21:19.466Z,98319.34
2022-12-26T17:23:46.386Z,98323.06
2022-12-26T17:26:23.565Z,98316.84
2022-12-26T17:28:50.508Z,98306.16
2022-12-26T17:31:19.630Z,98302.41
2022-12-26T17:33:48.191Z,98297.09
2022-12-26T17:39:13.040Z,98284.03
2022-12-26T17:41:43.998Z,98284.63
2022-12-26T17:44:40.193Z,98293.75
2022-12-26T17:47:20.818Z,98298.31
2022-12-26T17:49:48.234Z,98295.16
2022-12-26T17:52:15.266Z,98293.56
2022-12-26T17:54:41.957Z,98284.25
2022-12-26T17:57:12.261Z,98280.94
2022-12-26T17:59:42.879Z,98284.41
2022-12-26T18:02:10.579Z,98279.44
2022-12-26T18:04:37.521Z,98281.72
2022-12-26T18:07:04.507Z,98277.78
2022-12-26T18:09:31.209Z,98271.41
2022-12-26T18:12:04.374Z,98272.09
2022-12-26T18:14:31.023Z,98271.84
2022-12-26T18:16:57.669Z,98272.56
2022-12-26T18:19:24.325Z,98273.13
2022-12-26T18:21:51.101Z,98271.56
2022-12-26T18:24:17.781Z,98270.03
2022-12-26T18:26:44.438Z,98270.97
2022-12-26T18:29:11.196Z,98278.69
2022-12-26T18:31:38.145Z,98269.31
2022-12-26T18:34:04.973Z,98272.81
2022-12-26T18:36:35.582Z,98265.66
2022-12-26T18:39:02.484Z,98273.31
2022-12-26T18:41:29.141Z,98270.41
2022-12-26T18:43:56.864Z,98280.34
2022-12-26T18:46:24.599Z,98282.09
2022-12-26T18:48:54.040Z,98280.50
2022-12-26T18:51:21.341Z,98278.87
2022-12-26T18:53:48.038Z,98282.47
2022-12-26T18:56:15.599Z,98276.25
2022-12-26T18:58:42.354Z,98277.81
2022-12-26T19:01:10.046Z,98284.69
2022-12-26T19:03:36.854Z,98297.09
2022-12-26T19:06:03.637Z,98290.25
2022-12-26T19:08:30.273Z,98279.66
2022-12-26T19:10:56.955Z,98277.91
2022-12-26T19:13:23.591Z,98271.72
2022-12-26T19:15:50.249Z,98275.06
2022-12-26T19:18:16.896Z,98280.84
2022-12-26T19:20:44.488Z,98280.94
2022-12-26T19:23:11.425Z,98276.22
2022-12-26T19:25:38.225Z,98274.12
2022-12-26T19:28:04.886Z,98265.91
2022-12-26T19:30:38.271Z,98270.97
2022-12-26T19:33:05.327Z,98276.59
2022-12-26T19:35:32.080Z,98285.31
2022-12-26T19:37:58.819Z,98287.00
2022-12-26T19:40:25.650Z,98302.22
2022-12-26T19:42:52.429Z,98302.81
2022-12-26T19:45:19.112Z,98320.97
2022-12-26T19:47:45.770Z,98339.25
2022-12-26T19:50:12.630Z,98324.25
2022-12-26T19:52:40.834Z,98326.25
2022-12-26T19:55:08.517Z,98334.75
2022-12-26T19:57:35.174Z,98325.50
2022-12-26T20:00:01.893Z,98329.91
2022-12-26T20:02:28.692Z,98325.38
2022-12-26T20:04:55.549Z,98331.59
2022-12-26T20:07:22.255Z,98331.41
2022-12-26T20:09:48.927Z,98335.00
2022-12-26T20:12:15.628Z,98326.19
2022-12-26T20:14:42.320Z,98320.06
2022-12-26T20:17:12.105Z,98302.72
2022-12-26T20:19:38.840Z,98305.19
2022-12-26T20:22:05.638Z,98318.34
2022-12-26T20:24:32.506Z,98315.28
2022-12-26T20:26:59.177Z,98316.19
2022-12-26T20:29:25.937Z,98320.47
2022-12-26T20:31:55.301Z,98328.25
2022-12-26T20:34:22.150Z,98325.31
2022-12-26T20:36:48.832Z,98322.84
2022-12-26T20:39:16.959Z,98325.66
2022-12-26T20:41:44.673Z,98321.53
2022-12-26T20:44:14.995Z,98324.53
2022-12-26T20:46:41.945Z,98323.53
2022-12-26T20:49:10.010Z,98335.03
2022-12-26T20:51:38.596Z,98325.06
2022-12-26T20:54:08.285Z,98320.53
2022-12-26T20:56:35.389Z,98318.44
2022-12-26T20:59:02.070Z,98328.06
2022-12-26T21:01:36.678Z,98330.78
2022-12-26T21:04:03.845Z,98333.28
2022-12-26T21:06:31.537Z,98336.94
2022-12-26T21:08:58.351Z,98332.66
2022-12-26T21:11:32.309Z,98339.03
2022-12-26T21:14:00.599Z,98336.25
2022-12-26T21:16:34.055Z,98336.31
2022-12-26T21:19:00.769Z,98336.84
2022-12-26T21:21:29.523Z,98346.03
2022-12-26T21:23:58.883Z,98340.19
2022-12-26T21:26:26.216Z,98353.25
2022-12-26T21:29:00.004Z,98357.63
2022-12-26T21:31:29.790Z,98361.84
2022-12-26T21:33:57.067Z,98367.81
2022-12-26T21:36:24.004Z,98374.22
2022-12-26T21:38:50.657Z,98367.16
2022-12-26T21:41:30.842Z,98372.69
2022-12-26T21:43:57.488Z,98374.19
2022-12-26T21:46:24.122Z,98378.75
2022-12-26T21:48:50.749Z,98374.25
2022-12-26T21:51:22.082Z,98379.19
2022-12-26T21:53:49.013Z,98378.41
2022-12-26T21:56:16.281Z,98380.06
2022-12-26T21:59:15.371Z,98373.00
2022-12-26T22:01:42.068Z,98371.06
2022-12-26T22:04:20.082Z,98362.41
2022-12-26T22:06:46.778Z,98359.09
2022-12-26T22:09:15.007Z,98375.00
2022-12-26T22:12:21.437Z,98370.00
2022-12-26T22:14:48.059Z,98362.91
2022-12-26T22:17:14.694Z,98369.59
2022-12-26T22:23:32.134Z,98371.50
2022-12-26T22:25:59.025Z,98375.53
2022-12-26T22:28:25.808Z,98364.56
2022-12-26T22:30:52.526Z,98365.19
2022-12-26T22:33:19.622Z,98363.72
2022-12-26T22:35:46.301Z,98353.22
2022-12-26T22:38:12.988Z,98363.91
2022-12-26T22:40:41.626Z,98365.00
2022-12-26T22:43:08.294Z,98367.22
2022-12-26T22:45:34.963Z,98367.91
2022-12-26T22:48:01.620Z,98366.75
2022-12-26T22:50:28.258Z,98374.91
2022-12-26T22:52:54.943Z,98366.94
2022-12-26T22:55:21.608Z,98361.47
2022-12-26T22:57:52.388Z,98361.28
2022-12-26T23:00:32.462Z,98360.53
2022-12-26T23:02:59.222Z,98362.03
2022-12-26T23:05:26.150Z,98364.16
2022-12-26T23:07:52.951Z,98371.25
2022-12-26T23:10:22.776Z,98369.72
2022-12-26T23:12:49.670Z,98368.34
2022-12-26T23:15:17.646Z,98380.56
2022-12-26T23:18:05.222Z,98379.22
2022-12-26T23:20:56.687Z,98374.88
2022-12-26T23:23:23.646Z,98380.66
2022-12-26T23:25:50.448Z,98375.31
2022-12-26T23:28:35.872Z,98384.94
2022-12-26T23:31:31.472Z,98377.13
2022-12-26T23:33:58.160Z,98381.50
2022-12-26T23:36:24.814Z,98391.97
2022-12-26T23:38:51.595Z,98390.88
2022-12-26T23:41:30.346Z,98393.41
2022-12-26T23:43:57.031Z,98405.72
2022-12-26T23:46:23.745Z,98417.84
2022-12-26T23:48:50.433Z,98413.47
2022-12-26T23:54:35.225Z,98414.13
2022-12-26T23:57:01.915Z,98414.56
2022-12-26T23:59:28.592Z,98424.81
